createdAt,value
2023-09-22T00:06:34.420Z,19.05
2023-09-22T00:16:38.217Z,19.70
2023-09-22T00:21:40.176Z,22.08
2023-09-22T00:26:42.164Z,21.52
2023-09-22T00:31:44.279Z,22.15
2023-09-22T00:36:46.375Z,21.75
2023-09-22T00:41:48.385Z,21.55
2023-09-22T00:46:50.469Z,21.98
2023-09-22T00:56:54.428Z,21.42
2023-09-22T01:01:56.540Z,21.48
2023-09-22T01:12:00.190Z,23.42
2023-09-22T01:17:02.157Z,24.77
2023-09-22T01:22:04.176Z,23.75
2023-09-22T01:27:06.317Z,26.67
2023-09-22T01:37:10.053Z,22.23
2023-09-22T01:47:13.805Z,23.33
2023-09-22T01:52:15.721Z,24.17
2023-09-22T01:57:17.733Z,26.20
2023-09-22T02:07:21.512Z,22.73
2023-09-22T02:17:25.044Z,24.85
2023-09-22T02:22:27.030Z,25.30
2023-09-22T02:27:29.013Z,23.33
2023-09-22T02:37:32.916Z,25.50
2023-09-22T02:42:35.144Z,26.05
2023-09-22T02:47:40.793Z,27.25
2023-09-22T02:52:42.844Z,25.38
2023-09-22T03:02:47.006Z,25.67
2023-09-22T03:07:50.161Z,27.33
2023-09-22T03:12:52.360Z,26.08
2023-09-22T03:17:54.593Z,24.92
2023-09-22T03:22:56.785Z,23.65
2023-09-22T03:33:00.694Z,28.63
2023-09-22T03:38:02.894Z,28.35
2023-09-22T03:48:07.069Z,34.65
2023-09-22T03:53:09.052Z,48.67
2023-09-22T04:03:13.468Z,56.70
2023-09-22T04:08:15.555Z,52.17
2023-09-22T04:18:19.288Z,30.70
2023-09-22T04:28:26.241Z,27.95
2023-09-22T04:33:28.411Z,27.02
2023-09-22T04:38:30.472Z,30.95
2023-09-22T04:48:34.269Z,36.50
2023-09-22T04:53:37.582Z,35.63
2023-09-22T05:03:41.764Z,34.47
2023-09-22T05:08:44.089Z,33.85
2023-09-22T05:13:46.243Z,33.15
2023-09-22T05:23:50.094Z,26.80
2023-09-22T05:33:53.923Z,26.00
2023-09-22T05:38:56.001Z,26.15
2023-09-22T05:48:59.744Z,24.65
2023-09-22T05:54:01.703Z,25.50
2023-09-22T06:04:06.041Z,23.77
2023-09-22T06:09:08.138Z,22.10
2023-09-22T06:14:10.110Z,22.58
2023-09-22T06:19:12.201Z,19.90
2023-09-22T06:24:14.167Z,18.15
2023-09-22T06:29:16.178Z,15.85
2023-09-22T06:34:18.094Z,13.75
2023-09-22T06:39:20.088Z,12.70
2023-09-22T06:44:22.152Z,11.68
2023-09-22T06:49:24.065Z,11.32
2023-09-22T06:54:26.090Z,9.90
2023-09-22T06:59:28.036Z,10.27
2023-09-22T07:04:29.978Z,9.88
2023-09-22T07:09:32.020Z,9.18
2023-09-22T07:14:34.060Z,9.68
2023-09-22T07:19:39.607Z,9.20
2023-09-22T07:24:41.550Z,8.63
2023-09-22T07:29:43.770Z,8.40
2023-09-22T07:34:45.917Z,8.82
2023-09-22T07:39:47.951Z,9.10
2023-09-22T07:44:49.915Z,10.23
2023-09-22T07:49:51.897Z,10.10
2023-09-22T07:54:53.848Z,10.55
2023-09-22T07:59:55.844Z,10.45
2023-09-22T08:04:57.797Z,9.10
2023-09-22T08:09:59.856Z,9.55
2023-09-22T08:15:01.869Z,9.38
2023-09-22T08:20:04.824Z,9.02
2023-09-22T08:25:08.698Z,9.52
2023-09-22T08:30:11.946Z,9.27
2023-09-22T08:35:14.815Z,8.15
2023-09-22T08:40:17.447Z,8.68
2023-09-22T08:45:19.667Z,8.93
2023-09-22T08:50:21.777Z,8.05
2023-09-22T08:55:23.802Z,8.57
2023-09-22T09:00:27.356Z,7.40
2023-09-22T09:05:30.808Z,7.60
2023-09-22T09:10:36.063Z,7.70
2023-09-22T09:15:48.618Z,6.95
2023-09-22T09:21:12.808Z,7.43
2023-09-22T09:26:14.819Z,6.47
2023-09-22T09:31:16.877Z,6.70
2023-09-22T09:36:18.895Z,6.82
2023-09-22T09:41:20.945Z,6.43
2023-09-22T09:46:23.066Z,6.03
2023-09-22T09:51:25.121Z,5.85
2023-09-22T09:56:27.147Z,5.80
2023-09-22T10:01:29.207Z,5.47
2023-09-22T10:06:38.145Z,4.95
2023-09-22T10:11:40.594Z,5.28
2023-09-22T10:16:42.690Z,6.13
2023-09-22T10:21:44.773Z,5.63
2023-09-22T10:27:10.711Z,5.10
2023-09-22T10:32:18.847Z,4.95
2023-09-22T10:37:26.366Z,5.97
2023-09-22T10:42:28.648Z,5.13
2023-09-22T10:47:40.538Z,5.00
2023-09-22T10:52:53.334Z,5.55
2023-09-22T10:57:56.230Z,5.22
2023-09-22T11:03:13.705Z,6.03
2023-09-22T11:08:16.551Z,5.00
2023-09-22T11:13:18.468Z,5.38
2023-09-22T11:18:35.789Z,5.05
2023-09-22T11:23:39.063Z,5.47
2023-09-22T11:28:42.016Z,4.93
2023-09-22T11:33:45.000Z,5.22
2023-09-22T11:38:54.135Z,5.28
2023-09-22T11:43:56.194Z,6.65
2023-09-22T11:49:07.400Z,5.22
2023-09-22T11:54:09.764Z,4.87
2023-09-22T11:59:19.444Z,5.28
2023-09-22T12:04:21.869Z,4.90
2023-09-22T12:09:23.952Z,4.70
2023-09-22T12:14:25.903Z,5.15
2023-09-22T12:19:28.056Z,4.57
2023-09-22T12:24:30.112Z,4.03
2023-09-22T12:29:32.309Z,4.40
2023-09-22T12:34:34.309Z,4.20
2023-09-22T12:39:36.304Z,4.60
2023-09-22T12:44:38.240Z,5.00
2023-09-22T12:49:40.283Z,4.13
2023-09-22T12:54:42.340Z,4.45
2023-09-22T12:59:44.399Z,4.60
2023-09-22T13:04:48.095Z,4.40
2023-09-22T13:09:52.963Z,4.78
2023-09-22T13:14:55.268Z,5.00
2023-09-22T13:19:57.427Z,4.43
2023-09-22T13:24:59.464Z,4.57
2023-09-22T13:30:01.530Z,4.75
2023-09-22T13:35:06.209Z,4.47
2023-09-22T13:40:08.962Z,4.70
2023-09-22T13:45:11.189Z,4.57
2023-09-22T13:50:13.327Z,4.80
2023-09-22T13:55:15.342Z,4.80
2023-09-22T14:00:17.463Z,4.95
2023-09-22T14:05:19.499Z,4.50
2023-09-22T14:10:21.716Z,4.70
2023-09-22T14:15:23.760Z,4.80
2023-09-22T14:20:25.740Z,4.75
2023-09-22T14:25:27.875Z,4.50
2023-09-22T14:30:29.984Z,4.63
2023-09-22T14:35:31.988Z,4.40
2023-09-22T14:40:34.863Z,4.68
2023-09-22T14:45:37.504Z,4.80
2023-09-22T14:50:39.624Z,4.38
2023-09-22T14:55:42.242Z,4.38
2023-09-22T15:00:44.245Z,4.45
2023-09-22T15:05:46.382Z,4.70
2023-09-22T15:10:52.262Z,4.20
2023-09-22T15:15:54.145Z,5.15
2023-09-22T15:21:03.891Z,4.43
2023-09-22T15:26:06.897Z,5.07
2023-09-22T15:31:10.096Z,4.65
2023-09-22T15:36:12.466Z,4.30
2023-09-22T15:41:15.636Z,4.30
2023-09-22T15:46:17.794Z,4.88
2023-09-22T15:51:19.848Z,4.68
2023-09-22T15:56:22.002Z,4.85
2023-09-22T16:01:24.146Z,4.35
2023-09-22T16:06:26.207Z,4.85
2023-09-22T16:11:28.154Z,4.68
2023-09-22T16:16:30.276Z,4.60
2023-09-22T16:21:32.401Z,4.70
2023-09-22T16:26:34.451Z,4.78
2023-09-22T16:31:37.064Z,4.45
2023-09-22T16:36:39.235Z,5.20
2023-09-22T16:41:41.364Z,4.97
2023-09-22T16:46:43.453Z,8.70
2023-09-22T16:51:45.593Z,5.03
2023-09-22T16:56:47.667Z,4.72
2023-09-22T17:01:49.728Z,4.82
2023-09-22T17:06:51.786Z,5.35
2023-09-22T17:11:53.819Z,5.13
2023-09-22T17:16:56.255Z,5.13
2023-09-22T17:21:58.276Z,5.65
2023-09-22T17:27:00.249Z,5.38
2023-09-22T17:37:04.016Z,6.07
2023-09-22T17:42:05.924Z,5.45
2023-09-22T17:52:09.679Z,6.50
2023-09-22T18:02:13.636Z,5.90
2023-09-22T18:07:15.701Z,6.03
2023-09-22T18:17:19.878Z,5.43
2023-09-22T18:22:21.922Z,6.25
2023-09-22T18:27:24.239Z,6.40
2023-09-22T18:32:26.213Z,6.60
2023-09-22T18:37:28.556Z,6.13
2023-09-22T18:42:30.619Z,7.10
2023-09-22T18:47:32.699Z,6.28
2023-09-22T18:52:34.997Z,6.50
2023-09-22T18:57:37.000Z,6.35
2023-09-22T19:07:41.698Z,5.88
2023-09-22T19:12:43.766Z,6.55
2023-09-22T19:17:46.050Z,6.60
2023-09-22T19:22:48.250Z,5.57
2023-09-22T19:27:50.515Z,5.95
2023-09-22T19:32:52.555Z,5.72
2023-09-22T19:37:54.665Z,6.10
2023-09-22T19:42:56.700Z,5.70
2023-09-22T19:53:00.645Z,5.45
2023-09-22T19:58:03.270Z,5.88
2023-09-22T20:03:05.490Z,6.03
2023-09-22T20:08:07.581Z,5.80
2023-09-22T20:13:10.035Z,5.28
2023-09-22T20:18:12.079Z,5.18
2023-09-22T20:23:14.113Z,5.38
2023-09-22T20:33:18.012Z,5.20
2023-09-22T20:38:20.644Z,5.47
2023-09-22T20:43:24.841Z,5.18
2023-09-22T20:48:26.842Z,5.60
2023-09-22T20:58:30.968Z,5.15
2023-09-22T21:03:33.370Z,5.32
2023-09-22T21:08:35.556Z,5.75
2023-09-22T21:18:39.408Z,5.68
2023-09-22T21:28:43.349Z,5.78
2023-09-22T21:33:45.472Z,5.47
2023-09-22T21:43:49.730Z,5.90
2023-09-22T21:48:51.884Z,5.03
2023-09-22T21:58:55.620Z,5.32
2023-09-22T22:08:59.657Z,5.05
2023-09-22T22:14:01.623Z,5.32
2023-09-22T22:19:03.613Z,5.10
2023-09-22T22:24:05.810Z,4.63
2023-09-22T22:29:07.867Z,4.68
2023-09-22T22:34:09.991Z,4.90
2023-09-22T22:39:11.975Z,4.80
2023-09-22T22:49:16.238Z,4.72
2023-09-22T22:59:20.365Z,4.68
2023-09-22T23:04:22.430Z,5.18
2023-09-22T23:14:26.299Z,4.93
2023-09-22T23:19:28.395Z,5.05
2023-09-22T23:24:30.330Z,4.90
2023-09-22T23:29:32.397Z,4.90
2023-09-22T23:39:36.075Z,5.32
2023-09-22T23:44:38.024Z,5.20
2023-09-22T23:49:40.005Z,5.30
2023-09-22T23:54:41.952Z,5.68
2023-09-22T23:59:44.417Z,5.70
